Time;durP1;ratioP1;P1;durP2;ratioP2;P2;SDS_P1;SDS_P2;PMS_P1;PMS_P2;Temp;Humidity;BMP_temperature;BMP_pressure;BME280_temperature;BME280_humidity;BME280_pressure;Samples;Min_cycle;Max_cycle;Signal;HPM_P1;HPM_P2
2023/01/24 00:02:05;;;;;;;;;;;17.40;63.90;;;;;;5013644;28;829;-69
2023/01/24 00:04:31;;;;;;;;;;;17.40;64.00;;;;;;5014113;28;1275;-68
2023/01/24 00:06:56;;;;;;;;;;;17.40;63.90;;;;;;5016037;28;1248;-68
2023/01/24 00:09:22;;;;;;;;;;;17.40;63.90;;;;;;5018887;28;1268;-68
2023/01/24 00:11:47;;;;;;;;;;;17.40;64.00;;;;;;5020865;28;1596;-68
2023/01/24 00:14:13;;;;;;;;;;;17.40;64.00;;;;;;5021193;28;1306;-69
2023/01/24 00:16:38;;;;;;;;;;;17.40;64.00;;;;;;5020269;28;849;-72
2023/01/24 00:19:04;;;;;;;;;;;17.40;64.00;;;;;;5021298;28;1906;-71
2023/01/24 00:21:29;;;;;;;;;;;17.40;64.00;;;;;;5019115;28;887;-71
2023/01/24 00:23:54;;;;;;;;;;;17.40;64.00;;;;;;5017124;28;1061;-71
2023/01/24 00:26:20;;;;;;;;;;;17.40;64.00;;;;;;5025345;28;851;-70
2023/01/24 00:28:46;;;;;;;;;;;17.40;64.00;;;;;;5052089;28;1343;-70
2023/01/24 00:31:11;;;;;;;;;;;17.40;64.00;;;;;;5025535;28;915;-72
2023/01/24 00:33:37;;;;;;;;;;;17.40;64.00;;;;;;5020474;28;803;-71
2023/01/24 00:36:02;;;;;;;;;;;17.40;64.10;;;;;;5023604;28;1395;-70
2023/01/24 00:38:28;;;;;;;;;;;17.40;64.10;;;;;;5052571;28;1894;-70
2023/01/24 00:40:54;;;;;;;;;;;17.30;64.00;;;;;;5051882;28;927;-73
2023/01/24 00:43:19;;;;;;;;;;;17.40;64.10;;;;;;5021381;28;1323;-68
2023/01/24 00:45:45;;;;;;;;;;;17.40;64.10;;;;;;5022206;28;852;-68
2023/01/24 00:48:10;;;;;;;;;;;17.40;64.10;;;;;;5022227;28;1274;-68
2023/01/24 00:50:36;;;;;;;;;;;17.40;64.10;;;;;;5024314;28;916;-68
2023/01/24 00:53:01;;;;;;;;;;;17.40;64.10;;;;;;5020349;28;838;-68
2023/01/24 00:55:27;;;;;;;;;;;17.40;64.10;;;;;;5052199;28;978;-68
2023/01/24 00:57:53;;;;;;;;;;;17.40;64.10;;;;;;5052276;28;1894;-69
2023/01/24 01:00:18;;;;;;;;;;;17.40;64.20;;;;;;5018763;28;887;-68
2023/01/24 01:02:44;;;;;;;;;;;17.40;64.10;;;;;;5021659;28;818;-68
2023/01/24 01:05:09;;;;;;;;;;;17.40;64.20;;;;;;5021173;28;1053;-68
2023/01/24 01:07:35;;;;;;;;;;;17.30;64.10;;;;;;5053138;28;1276;-68
2023/01/24 01:10:00;;;;;;;;;;;17.30;64.10;;;;;;5019493;28;812;-68
2023/01/24 01:12:26;;;;;;;;;;;17.30;64.10;;;;;;5023973;28;1076;-68
2023/01/24 01:14:51;;;;;;;;;;;17.30;64.10;;;;;;5021111;28;1015;-68
2023/01/24 01:17:17;;;;;;;;;;;17.30;64.10;;;;;;5020445;28;1971;-71
2023/01/24 01:19:42;;;;;;;;;;;17.30;64.10;;;;;;5020678;28;896;-70
2023/01/24 01:22:08;;;;;;;;;;;17.30;64.20;;;;;;5042528;28;935;-70
2023/01/24 01:24:33;;;;;;;;;;;17.30;64.10;;;;;;5053580;28;872;-71
2023/01/24 01:26:59;;;;;;;;;;;17.30;64.20;;;;;;5018614;28;1271;-70
2023/01/24 01:29:24;;;;;;;;;;;17.30;64.20;;;;;;5034264;28;924;-69
2023/01/24 01:31:50;;;;;;;;;;;17.30;64.20;;;;;;5028480;28;1297;-69
2023/01/24 01:34:15;;;;;;;;;;;17.30;64.20;;;;;;5022193;28;1279;-69
2023/01/24 01:36:41;;;;;;;;;;;17.30;64.20;;;;;;5018054;28;911;-68
2023/01/24 01:39:06;;;;;;;;;;;17.30;64.20;;;;;;5020150;28;1903;-69
2023/01/24 01:41:32;;;;;;;;;;;17.30;64.20;;;;;;5020025;28;843;-69
2023/01/24 01:46:59;;;;;;;;;;;17.30;64.20;;;;;;5045236;28;1300;-70
2023/01/24 01:49:24;;;;;;;;;;;17.30;64.20;;;;;;5052413;28;863;-70
2023/01/24 01:51:50;;;;;;;;;;;17.30;64.20;;;;;;5035423;28;841;-70
2023/01/24 01:54:19;;;;;;;;;;;17.30;64.20;;;;;;5022740;28;903;-69
2023/01/24 01:56:45;;;;;;;;;;;17.30;64.30;;;;;;5021159;28;833;-70
2023/01/24 01:59:14;;;;;;;;;;;17.30;64.20;;;;;;5019331;28;1987;-70
2023/01/24 02:01:40;;;;;;;;;;;17.30;64.20;;;;;;5051609;28;809;-69
2023/01/24 02:04:10;;;;;;;;;;;17.30;64.30;;;;;;5023112;28;1287;-72
2023/01/24 02:06:38;;;;;;;;;;;17.30;64.20;;;;;;5049869;28;1319;-71
2023/01/24 02:09:04;;;;;;;;;;;17.30;64.30;;;;;;5028423;28;1282;-70
2023/01/24 02:11:38;;;;;;;;;;;17.30;64.30;;;;;;5053415;28;1042;-71
2023/01/24 02:16:48;;;;;;;;;;;17.30;64.30;;;;;;5045274;28;1287;-70
2023/01/24 02:19:25;;;;;;;;;;;17.30;64.30;;;;;;5021222;28;1914;-70
2023/01/24 02:21:52;;;;;;;;;;;17.30;64.30;;;;;;5024113;28;998;-71
2023/01/24 02:24:23;;;;;;;;;;;17.30;64.30;;;;;;5052229;28;1613;-71
2023/01/24 02:26:48;;;;;;;;;;;17.30;64.30;;;;;;5052227;28;1324;-72
2023/01/24 02:29:14;;;;;;;;;;;17.30;64.30;;;;;;5018300;28;955;-71
2023/01/24 02:31:56;;;;;;;;;;;17.30;64.30;;;;;;5050946;28;801;-71
2023/01/24 02:34:21;;;;;;;;;;;17.30;64.30;;;;;;5017322;28;1288;-71
2023/01/24 02:36:47;;;;;;;;;;;17.30;64.30;;;;;;5021833;28;1541;-72
2023/01/24 02:39:16;;;;;;;;;;;17.30;64.30;;;;;;5022956;28;1949;-72
2023/01/24 02:41:47;;;;;;;;;;;17.30;64.30;;;;;;5020598;28;966;-71
2023/01/24 02:44:13;;;;;;;;;;;17.30;64.30;;;;;;5018789;28;812;-72
2023/01/24 02:46:38;;;;;;;;;;;17.30;64.30;;;;;;5026002;28;1181;-72
2023/01/24 02:49:07;;;;;;;;;;;17.30;64.30;;;;;;5019687;28;1262;-70
2023/01/24 02:54:17;;;;;;;;;;;17.30;64.40;;;;;;5019878;28;791;-70
2023/01/24 02:59:27;;;;;;;;;;;17.20;64.30;;;;;;5019845;28;1969;-72
2023/01/24 03:01:52;;;;;;;;;;;17.30;64.40;;;;;;5023580;28;1275;-70
2023/01/24 03:04:18;;;;;;;;;;;17.20;64.30;;;;;;5022395;28;1410;-70
2023/01/24 03:06:43;;;;;;;;;;;17.20;64.30;;;;;;5015286;28;916;-70
2023/01/24 03:09:18;;;;;;;;;;;17.20;64.30;;;;;;5017068;28;1457;-70
2023/01/24 03:11:47;;;;;;;;;;;17.20;64.30;;;;;;5048269;28;943;-70
2023/01/24 03:36:07;;;;;;;;;;;17.20;64.40;;;;;;5017469;28;1527;-76
2023/01/24 03:41:17;;;;;;;;;;;17.20;64.40;;;;;;5017536;28;797;-72
2023/01/24 03:43:45;;;;;;;;;;;17.20;64.40;;;;;;5020289;28;888;-72
2023/01/24 03:46:11;;;;;;;;;;;17.20;64.40;;;;;;5019666;28;852;-73
2023/01/24 03:48:36;;;;;;;;;;;17.20;64.40;;;;;;5016986;28;1267;-72
2023/01/24 03:53:46;;;;;;;;;;;17.20;64.40;;;;;;5042199;28;887;-72
2023/01/24 03:56:12;;;;;;;;;;;17.20;64.40;;;;;;5026591;28;1294;-72
2023/01/24 03:58:37;;;;;;;;;;;17.20;64.40;;;;;;5018360;28;1898;-72
2023/01/24 04:01:03;;;;;;;;;;;17.20;64.40;;;;;;5020925;28;824;-72
2023/01/24 04:03:28;;;;;;;;;;;17.20;64.50;;;;;;5021270;28;1289;-72
2023/01/24 04:05:54;;;;;;;;;;;17.20;64.40;;;;;;5024255;28;859;-72
2023/01/24 04:08:19;;;;;;;;;;;17.20;64.50;;;;;;5025251;28;1312;-72
2023/01/24 04:10:45;;;;;;;;;;;17.20;64.40;;;;;;5023502;28;804;-72
2023/01/24 04:13:11;;;;;;;;;;;17.20;64.40;;;;;;5019475;28;1280;-72
2023/01/24 04:15:37;;;;;;;;;;;17.20;64.40;;;;;;5021702;28;812;-72
2023/01/24 04:18:03;;;;;;;;;;;17.20;64.50;;;;;;5023751;28;2005;-72
2023/01/24 04:20:29;;;;;;;;;;;17.20;64.50;;;;;;5053938;28;835;-72
2023/01/24 04:22:55;;;;;;;;;;;17.20;64.50;;;;;;5021376;28;838;-72
2023/01/24 04:25:20;;;;;;;;;;;17.20;64.50;;;;;;5024937;28;845;-73
2023/01/24 04:27:45;;;;;;;;;;;17.20;64.50;;;;;;5024204;28;1345;-72
2023/01/24 04:30:11;;;;;;;;;;;17.20;64.50;;;;;;5029478;28;1308;-72
2023/01/24 04:32:37;;;;;;;;;;;17.20;64.50;;;;;;5023154;28;929;-72
2023/01/24 04:35:03;;;;;;;;;;;17.20;64.50;;;;;;5024610;28;1414;-72
2023/01/24 04:37:28;;;;;;;;;;;17.20;64.50;;;;;;5054032;28;1898;-72
2023/01/24 04:39:54;;;;;;;;;;;17.20;64.50;;;;;;5023204;28;941;-72
2023/01/24 04:42:19;;;;;;;;;;;17.20;64.50;;;;;;5020453;28;912;-72
2023/01/24 04:44:45;;;;;;;;;;;17.20;64.50;;;;;;5020532;28;915;-72
2023/01/24 04:47:10;;;;;;;;;;;17.20;64.50;;;;;;5019713;28;1262;-72
2023/01/24 04:49:36;;;;;;;;;;;17.20;64.50;;;;;;5020724;28;951;-72
2023/01/24 04:52:01;;;;;;;;;;;17.20;64.50;;;;;;5022246;28;1061;-72
2023/01/24 04:54:27;;;;;;;;;;;17.20;64.50;;;;;;5019323;28;875;-72
2023/01/24 04:56:52;;;;;;;;;;;17.20;64.50;;;;;;5019644;28;1382;-72
2023/01/24 04:59:18;;;;;;;;;;;17.20;64.50;;;;;;5036491;28;1902;-72
2023/01/24 05:01:43;;;;;;;;;;;17.20;64.60;;;;;;5018740;28;876;-72
2023/01/24 05:04:09;;;;;;;;;;;17.20;64.50;;;;;;5053747;28;1315;-72
2023/01/24 05:06:34;;;;;;;;;;;17.20;64.50;;;;;;5019897;28;881;-72
2023/01/24 05:09:00;;;;;;;;;;;17.20;64.60;;;;;;5036451;28;1292;-72
2023/01/24 05:11:26;;;;;;;;;;;17.20;64.50;;;;;;5024659;28;1599;-72
2023/01/24 05:13:51;;;;;;;;;;;17.10;64.50;;;;;;5017893;28;848;-72
2023/01/24 05:16:17;;;;;;;;;;;17.20;64.60;;;;;;5020355;28;1065;-72
2023/01/24 05:18:42;;;;;;;;;;;17.20;64.60;;;;;;5024944;28;1907;-72
2023/01/24 05:21:08;;;;;;;;;;;17.20;64.50;;;;;;5025128;28;1656;-72
2023/01/24 05:23:34;;;;;;;;;;;17.20;64.40;;;;;;5052679;28;814;-72
2023/01/24 05:26:00;;;;;;;;;;;17.20;64.30;;;;;;5055240;28;939;-72
2023/01/24 05:28:25;;;;;;;;;;;17.30;64.30;;;;;;5023708;28;1318;-71
2023/01/24 05:30:51;;;;;;;;;;;17.30;64.10;;;;;;5020615;28;888;-71
2023/01/24 05:33:16;;;;;;;;;;;17.30;64.00;;;;;;5020818;28;860;-71
2023/01/24 05:35:44;;;;;;;;;;;17.40;63.80;;;;;;5052703;28;1208;-72
2023/01/24 05:38:09;;;;;;;;;;;17.40;63.70;;;;;;5021660;28;1906;-72
2023/01/24 05:40:35;;;;;;;;;;;17.40;63.60;;;;;;5022198;28;1002;-74
2023/01/24 05:43:00;;;;;;;;;;;17.50;63.50;;;;;;5019804;28;1891;-75
2023/01/24 05:45:26;;;;;;;;;;;17.50;63.40;;;;;;5042765;28;1514;-73
2023/01/24 05:47:51;;;;;;;;;;;17.50;63.20;;;;;;5021555;28;1451;-74
2023/01/24 05:50:17;;;;;;;;;;;17.60;63.20;;;;;;5021019;28;793;-73
2023/01/24 05:52:42;;;;;;;;;;;17.60;63.10;;;;;;5019883;28;978;-73
2023/01/24 05:55:08;;;;;;;;;;;17.60;63.10;;;;;;5026431;28;1199;-72
2023/01/24 05:57:36;;;;;;;;;;;17.60;63.00;;;;;;5019531;28;2107;-74
2023/01/24 06:00:02;;;;;;;;;;;17.60;62.90;;;;;;5022376;28;934;-71
2023/01/24 06:02:28;;;;;;;;;;;17.60;62.90;;;;;;5049098;28;828;-71
2023/01/24 06:04:53;;;;;;;;;;;17.70;62.80;;;;;;5023573;28;1294;-72
2023/01/24 06:07:19;;;;;;;;;;;17.70;62.80;;;;;;5021439;28;1277;-71
2023/01/24 06:09:44;;;;;;;;;;;17.70;62.70;;;;;;5028741;28;1434;-70
2023/01/24 06:12:09;;;;;;;;;;;17.70;62.70;;;;;;5016612;28;872;-70
2023/01/24 06:14:35;;;;;;;;;;;17.70;62.60;;;;;;5000301;28;2048;-69
2023/01/24 06:17:00;;;;;;;;;;;17.70;62.60;;;;;;5020802;28;1340;-70
2023/01/24 06:19:26;;;;;;;;;;;17.70;62.60;;;;;;5022000;28;1903;-72
2023/01/24 06:22:11;;;;;;;;;;;17.70;62.60;;;;;;5021449;28;839;-71
2023/01/24 06:24:36;;;;;;;;;;;17.70;62.60;;;;;;5018682;28;845;-71
2023/01/24 06:27:02;;;;;;;;;;;17.70;62.50;;;;;;5019891;28;1162;-71
2023/01/24 06:29:27;;;;;;;;;;;17.80;62.50;;;;;;5018528;28;756;-70
2023/01/24 06:31:56;;;;;;;;;;;17.80;62.50;;;;;;5021652;28;866;-70
2023/01/24 06:34:26;;;;;;;;;;;17.80;62.50;;;;;;5017509;28;1384;-71
2023/01/24 06:37:21;;;;;;;;;;;17.80;62.40;;;;;;5017483;28;1345;-71
2023/01/24 06:39:51;;;;;;;;;;;17.80;62.40;;;;;;5015350;28;1902;-71
2023/01/24 06:42:20;;;;;;;;;;;17.80;62.40;;;;;;5023284;28;1526;-72
2023/01/24 06:44:46;;;;;;;;;;;17.80;62.40;;;;;;5042075;28;1377;-71
2023/01/24 06:47:11;;;;;;;;;;;17.80;62.30;;;;;;5021834;28;1938;-70
2023/01/24 06:49:37;;;;;;;;;;;17.80;62.40;;;;;;5017664;28;1124;-72
2023/01/24 06:52:03;;;;;;;;;;;17.80;62.40;;;;;;5020484;28;1368;-72
2023/01/24 06:54:28;;;;;;;;;;;17.80;62.30;;;;;;5022147;28;886;-71
2023/01/24 06:56:53;;;;;;;;;;;17.80;62.30;;;;;;5013925;28;1265;-72
2023/01/24 06:59:22;;;;;;;;;;;17.80;62.30;;;;;;5053245;28;1898;-72
2023/01/24 07:01:48;;;;;;;;;;;17.80;62.30;;;;;;5020625;28;840;-72
2023/01/24 07:04:13;;;;;;;;;;;17.80;62.30;;;;;;5019171;28;1315;-72
2023/01/24 07:06:39;;;;;;;;;;;17.80;62.30;;;;;;5017954;28;1201;-72
2023/01/24 07:09:05;;;;;;;;;;;17.80;62.30;;;;;;5020281;28;1365;-72
2023/01/24 07:11:30;;;;;;;;;;;17.80;62.30;;;;;;5020764;28;883;-72
2023/01/24 07:13:56;;;;;;;;;;;17.80;62.30;;;;;;5018250;28;821;-72
2023/01/24 07:16:21;;;;;;;;;;;17.80;62.30;;;;;;5019602;28;1010;-72
2023/01/24 07:18:47;;;;;;;;;;;17.80;62.30;;;;;;5037092;28;1906;-72
2023/01/24 07:21:12;;;;;;;;;;;17.80;62.30;;;;;;5021319;28;916;-72
2023/01/24 07:23:38;;;;;;;;;;;17.80;62.30;;;;;;5024007;28;1047;-72
2023/01/24 07:26:03;;;;;;;;;;;17.80;62.30;;;;;;5050341;28;878;-72
2023/01/24 07:28:29;;;;;;;;;;;17.80;62.30;;;;;;5018203;28;1178;-72
2023/01/24 07:30:54;;;;;;;;;;;17.80;62.30;;;;;;5052002;28;1428;-72
2023/01/24 07:33:20;;;;;;;;;;;17.80;62.30;;;;;;5020539;28;1468;-72
2023/01/24 07:35:45;;;;;;;;;;;17.80;62.30;;;;;;5017030;28;1254;-72
2023/01/24 07:38:13;;;;;;;;;;;17.80;62.30;;;;;;5018056;28;1971;-72
2023/01/24 07:40:39;;;;;;;;;;;17.80;62.30;;;;;;5019463;28;766;-72
2023/01/24 07:43:05;;;;;;;;;;;17.80;62.30;;;;;;5018842;28;825;-73
2023/01/24 07:45:31;;;;;;;;;;;17.80;62.30;;;;;;5019303;28;1299;-72
2023/01/24 07:47:57;;;;;;;;;;;17.80;62.30;;;;;;5018919;28;1367;-72
2023/01/24 07:50:23;;;;;;;;;;;17.80;62.30;;;;;;5047188;28;877;-72
2023/01/24 07:52:55;;;;;;;;;;;17.80;62.30;;;;;;5038051;28;1179;-72
2023/01/24 07:55:20;;;;;;;;;;;17.80;62.30;;;;;;5018104;28;950;-73
2023/01/24 07:57:46;;;;;;;;;;;17.80;62.30;;;;;;5052487;28;1894;-73
2023/01/24 08:00:12;;;;;;;;;;;17.80;62.30;;;;;;5020596;28;848;-72
2023/01/24 08:02:37;;;;;;;;;;;17.80;62.30;;;;;;5019878;28;1099;-72
2023/01/24 08:05:03;;;;;;;;;;;17.80;62.30;;;;;;5048884;28;1387;-72
2023/01/24 08:07:28;;;;;;;;;;;17.80;62.30;;;;;;5019134;28;1357;-72
2023/01/24 08:09:54;;;;;;;;;;;17.80;62.30;;;;;;5026308;28;1525;-73
2023/01/24 08:12:19;;;;;;;;;;;17.80;62.30;;;;;;5019176;28;865;-73
2023/01/24 08:14:45;;;;;;;;;;;17.80;62.30;;;;;;5023637;28;912;-73
2023/01/24 08:17:11;;;;;;;;;;;17.80;62.20;;;;;;5050860;28;2238;-70
2023/01/24 08:19:37;;;;;;;;;;;17.80;62.30;;;;;;5019476;28;1915;-73
2023/01/24 08:22:03;;;;;;;;;;;17.80;62.20;;;;;;5018971;28;1249;-72
2023/01/24 08:24:28;;;;;;;;;;;17.80;62.30;;;;;;5019408;28;884;-72
2023/01/24 08:26:54;;;;;;;;;;;17.80;62.20;;;;;;5025961;28;1295;-73
2023/01/24 08:29:19;;;;;;;;;;;17.80;62.20;;;;;;5020084;28;907;-72
2023/01/24 08:31:45;;;;;;;;;;;17.80;62.20;;;;;;5017396;28;792;-71
2023/01/24 08:34:10;;;;;;;;;;;17.80;62.20;;;;;;5017478;28;1316;-73
2023/01/24 08:36:36;;;;;;;;;;;17.80;62.20;;;;;;5019083;28;1178;-73
2023/01/24 08:39:02;;;;;;;;;;;17.80;62.20;;;;;;5016235;28;1965;-72
2023/01/24 08:41:28;;;;;;;;;;;17.80;62.20;;;;;;5030932;28;1318;-72
2023/01/24 08:43:53;;;;;;;;;;;17.80;62.20;;;;;;5034502;28;951;-72
2023/01/24 08:46:19;;;;;;;;;;;17.80;62.20;;;;;;5018293;28;1166;-73
2023/01/24 08:48:44;;;;;;;;;;;17.80;62.20;;;;;;5020049;28;1342;-72
2023/01/24 08:51:10;;;;;;;;;;;17.80;62.20;;;;;;5021264;28;1630;-72
2023/01/24 08:53:35;;;;;;;;;;;17.80;62.20;;;;;;5021062;28;781;-75
2023/01/24 08:56:01;;;;;;;;;;;17.80;62.20;;;;;;5021563;28;998;-73
2023/01/24 08:58:27;;;;;;;;;;;17.80;62.20;;;;;;5018647;28;1943;-72
2023/01/24 09:00:52;;;;;;;;;;;17.80;62.20;;;;;;5036336;28;840;-72
2023/01/24 09:03:18;;;;;;;;;;;17.80;62.20;;;;;;5022678;28;1318;-71
2023/01/24 09:05:43;;;;;;;;;;;17.80;62.20;;;;;;5020358;28;905;-72
2023/01/24 09:08:09;;;;;;;;;;;17.80;62.20;;;;;;5051783;28;1343;-72
2023/01/24 09:10:35;;;;;;;;;;;17.80;62.20;;;;;;5018575;28;852;-72
2023/01/24 09:13:00;;;;;;;;;;;17.80;62.20;;;;;;5018004;28;1048;-72
2023/01/24 09:15:26;;;;;;;;;;;17.80;62.20;;;;;;5052927;28;796;-72
2023/01/24 09:17:51;;;;;;;;;;;17.80;62.20;;;;;;5020423;28;1910;-72
2023/01/24 09:20:18;;;;;;;;;;;17.80;62.20;;;;;;5022805;28;1517;-71
2023/01/24 09:22:43;;;;;;;;;;;17.80;62.20;;;;;;5021531;28;835;-71
2023/01/24 09:25:09;;;;;;;;;;;17.80;62.20;;;;;;5052230;28;942;-72
2023/01/24 09:27:35;;;;;;;;;;;17.80;62.30;;;;;;5022017;28;1295;-72
2023/01/24 09:30:00;;;;;;;;;;;17.80;62.30;;;;;;5016794;28;832;-72
2023/01/24 09:32:26;;;;;;;;;;;17.80;63.10;;;;;;5018048;28;796;-72
2023/01/24 09:34:51;;;;;;;;;;;17.80;62.30;;;;;;5021514;28;977;-71
2023/01/24 09:37:17;;;;;;;;;;;17.80;62.30;;;;;;5019505;28;1381;-72
2023/01/24 09:39:43;;;;;;;;;;;17.80;62.30;;;;;;5050522;28;1957;-73
2023/01/24 09:42:29;;;;;;;;;;;17.80;62.30;;;;;;5020376;28;836;-74
2023/01/24 09:45:03;;;;;;;;;;;17.80;62.30;;;;;;5020244;28;824;-74
2023/01/24 09:47:38;;;;;;;;;;;17.80;62.30;;;;;;5038412;28;1261;-72
2023/01/24 09:50:04;;;;;;;;;;;17.80;62.30;;;;;;5052279;28;895;-72
2023/01/24 09:52:32;;;;;;;;;;;17.80;62.30;;;;;;5034537;28;861;-72
2023/01/24 09:55:18;;;;;;;;;;;17.80;62.30;;;;;;5021705;28;892;-71
2023/01/24 09:57:49;;;;;;;;;;;17.80;62.30;;;;;;5021264;28;1910;-72
2023/01/24 10:00:22;;;;;;;;;;;17.80;62.30;;;;;;5049077;28;849;-72
2023/01/24 10:02:48;;;;;;;;;;;17.80;62.30;;;;;;5024483;28;1359;-72
2023/01/24 10:05:14;;;;;;;;;;;17.80;62.30;;;;;;5048891;28;1200;-73
2023/01/24 10:07:56;;;;;;;;;;;17.80;62.40;;;;;;5051491;28;1343;-72
2023/01/24 10:10:34;;;;;;;;;;;17.80;62.40;;;;;;5011706;28;1152;-72
2023/01/24 10:13:03;;;;;;;;;;;17.80;63.00;;;;;;5052339;28;1513;-72
2023/01/24 10:15:31;;;;;;;;;;;17.90;63.30;;;;;;5015076;28;844;-71
2023/01/24 10:17:59;;;;;;;;;;;17.90;63.00;;;;;;5017993;28;1919;-72
2023/01/24 10:20:34;;;;;;;;;;;17.90;62.50;;;;;;5021192;28;1267;-72
2023/01/24 10:23:01;;;;;;;;;;;17.90;62.40;;;;;;5018843;28;991;-72
2023/01/24 10:25:48;;;;;;;;;;;17.90;62.30;;;;;;5027485;28;795;-72
2023/01/24 10:28:18;;;;;;;;;;;17.90;62.30;;;;;;5027775;28;1372;-73
2023/01/24 10:30:47;;;;;;;;;;;17.90;62.30;;;;;;5048388;28;862;-72
2023/01/24 10:33:16;;;;;;;;;;;17.90;62.30;;;;;;5033231;28;919;-72
2023/01/24 10:35:53;;;;;;;;;;;17.90;62.30;;;;;;5021697;28;1735;-72
2023/01/24 10:38:19;;;;;;;;;;;17.90;62.40;;;;;;5052232;28;2165;-72
2023/01/24 10:40:51;;;;;;;;;;;17.90;62.40;;;;;;5021362;28;1122;-73
2023/01/24 10:43:17;;;;;;;;;;;17.90;62.40;;;;;;5009253;28;1147;-72
2023/01/24 10:45:45;;;;;;;;;;;17.90;62.40;;;;;;5020086;28;809;-73
2023/01/24 10:48:13;;;;;;;;;;;17.80;62.40;;;;;;5047201;28;1272;-72
2023/01/24 10:50:44;;;;;;;;;;;17.80;62.40;;;;;;5019506;28;883;-72
2023/01/24 10:53:13;;;;;;;;;;;17.80;62.40;;;;;;5017861;28;1240;-73
2023/01/24 10:55:38;;;;;;;;;;;17.90;62.50;;;;;;5052919;28;1239;-72
2023/01/24 10:58:23;;;;;;;;;;;17.80;62.40;;;;;;5037823;28;1906;-73
2023/01/24 11:00:58;;;;;;;;;;;17.80;62.50;;;;;;5050535;28;926;-72
2023/01/24 11:03:28;;;;;;;;;;;17.80;62.40;;;;;;5018932;28;1407;-73
2023/01/24 11:05:54;;;;;;;;;;;17.80;62.40;;;;;;5018243;28;901;-72
2023/01/24 11:08:23;;;;;;;;;;;17.80;62.40;;;;;;5019626;28;1836;-72
2023/01/24 11:10:55;;;;;;;;;;;17.80;62.50;;;;;;5021293;28;1963;-72
2023/01/24 11:13:21;;;;;;;;;;;17.80;62.50;;;;;;5000645;28;1616;-72
2023/01/24 11:15:47;;;;;;;;;;;17.80;62.50;;;;;;5019810;28;892;-72
2023/01/24 11:18:12;;;;;;;;;;;17.80;62.50;;;;;;5041380;28;1906;-72
2023/01/24 11:20:38;;;;;;;;;;;17.80;62.50;;;;;;5017748;28;856;-73
2023/01/24 11:23:09;;;;;;;;;;;17.80;62.40;;;;;;5019354;28;1107;-72
2023/01/24 11:25:35;;;;;;;;;;;17.80;62.40;;;;;;5019052;28;1409;-72
2023/01/24 11:28:00;;;;;;;;;;;17.80;62.40;;;;;;5049351;28;1283;-73
2023/01/24 11:30:28;;;;;;;;;;;17.80;62.40;;;;;;5018227;28;1292;-73
2023/01/24 11:32:59;;;;;;;;;;;17.80;62.40;;;;;;5049171;28;1273;-72
2023/01/24 11:35:27;;;;;;;;;;;17.80;62.50;;;;;;5018267;28;1349;-73
2023/01/24 11:38:11;;;;;;;;;;;17.80;62.40;;;;;;5020796;28;1902;-73
2023/01/24 11:40:40;;;;;;;;;;;17.80;62.40;;;;;;5018079;28;1031;-72
2023/01/24 11:43:05;;;;;;;;;;;17.80;62.50;;;;;;5017875;28;867;-72
2023/01/24 11:45:39;;;;;;;;;;;17.80;62.40;;;;;;5018510;28;1574;-72
2023/01/24 11:48:08;;;;;;;;;;;17.80;62.50;;;;;;5014384;28;1318;-72
2023/01/24 11:50:37;;;;;;;;;;;17.80;62.50;;;;;;5019226;28;777;-71
2023/01/24 11:53:05;;;;;;;;;;;17.80;62.50;;;;;;5017661;28;872;-72
2023/01/24 11:55:36;;;;;;;;;;;17.80;62.60;;;;;;5018038;28;934;-72
2023/01/24 11:58:20;;;;;;;;;;;17.80;62.60;;;;;;5051169;28;2273;-71
2023/01/24 12:01:00;;;;;;;;;;;17.80;62.60;;;;;;5018212;28;892;-71
2023/01/24 12:03:28;;;;;;;;;;;17.80;62.50;;;;;;5019053;28;1383;-72
2023/01/24 12:06:06;;;;;;;;;;;17.80;62.40;;;;;;5017522;28;900;-71
2023/01/24 12:08:37;;;;;;;;;;;17.80;62.40;;;;;;5016033;28;1366;-71
2023/01/24 12:11:09;;;;;;;;;;;17.90;62.40;;;;;;5020901;28;900;-72
2023/01/24 12:13:40;;;;;;;;;;;17.90;62.30;;;;;;5018951;28;794;-72
2023/01/24 12:16:08;;;;;;;;;;;17.90;62.20;;;;;;5034498;28;1156;-73
2023/01/24 12:18:34;;;;;;;;;;;17.90;62.10;;;;;;5018387;28;1906;-72
2023/01/24 12:21:03;;;;;;;;;;;17.90;62.00;;;;;;5021512;28;919;-71
2023/01/24 12:23:37;;;;;;;;;;;18.00;62.00;;;;;;5022295;28;887;-73
2023/01/24 12:26:05;;;;;;;;;;;18.00;62.00;;;;;;5025827;28;965;-73
2023/01/24 12:28:35;;;;;;;;;;;18.00;62.00;;;;;;5013340;28;1329;-72
2023/01/24 12:31:01;;;;;;;;;;;18.00;61.90;;;;;;5024325;28;848;-72
2023/01/24 12:33:27;;;;;;;;;;;18.00;61.90;;;;;;5020642;28;860;-72
2023/01/24 12:35:54;;;;;;;;;;;18.00;61.90;;;;;;5030269;28;1312;-71
2023/01/24 12:38:34;;;;;;;;;;;18.00;61.90;;;;;;5023051;28;1895;-72
2023/01/24 12:41:12;;;;;;;;;;;18.00;61.80;;;;;;5036358;28;1214;-72
2023/01/24 12:43:58;;;;;;;;;;;18.00;61.80;;;;;;5055289;28;1065;-73
2023/01/24 12:46:25;;;;;;;;;;;18.00;61.80;;;;;;5021738;28;860;-71
2023/01/24 12:48:57;;;;;;;;;;;18.00;61.80;;;;;;5023869;28;2112;-71
2023/01/24 12:51:29;;;;;;;;;;;18.00;61.80;;;;;;5020329;28;1941;-72
2023/01/24 12:54:07;;;;;;;;;;;18.00;61.80;;;;;;5022495;28;1343;-71
2023/01/24 12:56:44;;;;;;;;;;;18.00;61.80;;;;;;5005312;28;1238;-72
2023/01/24 12:59:10;;;;;;;;;;;18.00;61.80;;;;;;5050845;28;1927;-71
2023/01/24 13:01:48;;;;;;;;;;;18.00;61.80;;;;;;5054499;28;844;-71
2023/01/24 13:04:26;;;;;;;;;;;18.00;61.80;;;;;;5054005;28;1291;-72
2023/01/24 13:07:04;;;;;;;;;;;18.00;61.80;;;;;;5023133;28;2180;-72
2023/01/24 13:09:34;;;;;;;;;;;18.00;61.80;;;;;;5021160;28;1321;-72
2023/01/24 13:11:59;;;;;;;;;;;18.00;61.90;;;;;;5020161;28;2083;-72
2023/01/24 13:14:38;;;;;;;;;;;18.00;61.90;;;;;;5056027;28;2293;-71
2023/01/24 13:17:13;;;;;;;;;;;18.00;61.80;;;;;;5028418;28;2115;-71
2023/01/24 13:19:39;;;;;;;;;;;18.00;61.90;;;;;;5020354;28;1973;-71
2023/01/24 13:22:10;;;;;;;;;;;17.90;61.80;;;;;;5021954;28;1390;-71
2023/01/24 13:24:57;;;;;;;;;;;18.00;61.90;;;;;;5024173;28;991;-72
2023/01/24 13:27:28;;;;;;;;;;;17.90;61.80;;;;;;5022291;28;1203;-71
2023/01/24 13:30:04;;;;;;;;;;;18.00;61.90;;;;;;5021815;28;1015;-71
2023/01/24 13:32:29;;;;;;;;;;;18.00;61.90;;;;;;5020268;28;867;-71
2023/01/24 13:34:55;;;;;;;;;;;18.00;61.90;;;;;;5027450;28;1378;-70
2023/01/24 13:37:23;;;;;;;;;;;18.00;61.90;;;;;;5016278;28;1360;-71
2023/01/24 13:39:49;;;;;;;;;;;18.00;61.90;;;;;;5028329;28;1909;-71
2023/01/24 13:42:19;;;;;;;;;;;18.00;61.90;;;;;;5022686;28;1300;-71
2023/01/24 13:44:44;;;;;;;;;;;17.90;61.90;;;;;;5019314;28;908;-71
2023/01/24 13:47:13;;;;;;;;;;;18.00;61.90;;;;;;5052122;28;1197;-71
2023/01/24 13:49:39;;;;;;;;;;;18.00;61.90;;;;;;5021957;28;892;-71
2023/01/24 13:52:23;;;;;;;;;;;17.90;61.90;;;;;;5052566;28;871;-71
2023/01/24 13:54:49;;;;;;;;;;;17.90;61.90;;;;;;5018678;28;860;-71
2023/01/24 13:57:21;;;;;;;;;;;17.90;61.90;;;;;;5016567;28;1213;-71
2023/01/24 14:00:09;;;;;;;;;;;18.00;62.00;;;;;;5022626;28;1989;-71
2023/01/24 14:02:34;;;;;;;;;;;17.90;61.90;;;;;;5017594;28;852;-71
2023/01/24 14:05:00;;;;;;;;;;;17.90;61.90;;;;;;5017600;28;1308;-71
2023/01/24 14:07:26;;;;;;;;;;;17.90;61.90;;;;;;5053238;28;1361;-71
2023/01/24 14:09:58;;;;;;;;;;;17.90;61.90;;;;;;5022780;28;877;-71
2023/01/24 14:12:24;;;;;;;;;;;17.90;61.90;;;;;;5021361;28;911;-71
2023/01/24 14:14:59;;;;;;;;;;;17.90;62.00;;;;;;5026837;28;1043;-71
2023/01/24 14:17:29;;;;;;;;;;;17.90;62.00;;;;;;5018652;28;1295;-71
2023/01/24 14:19:55;;;;;;;;;;;17.90;62.00;;;;;;5011583;28;1969;-71
2023/01/24 14:22:21;;;;;;;;;;;17.90;62.00;;;;;;5021429;28;785;-71
2023/01/24 14:24:46;;;;;;;;;;;17.90;62.00;;;;;;5031840;28;1214;-71
2023/01/24 14:27:30;;;;;;;;;;;17.90;62.00;;;;;;5019639;28;1321;-72
2023/01/24 14:30:10;;;;;;;;;;;17.90;62.00;;;;;;5019543;28;982;-71
2023/01/24 14:32:37;;;;;;;;;;;17.90;62.00;;;;;;5027948;28;1295;-71
2023/01/24 14:35:21;;;;;;;;;;;17.90;62.00;;;;;;5052232;28;1065;-71
2023/01/24 14:37:47;;;;;;;;;;;17.90;62.00;;;;;;5020272;28;1922;-71
2023/01/24 14:40:20;;;;;;;;;;;17.90;62.00;;;;;;5050476;28;947;-71
2023/01/24 14:42:46;;;;;;;;;;;17.90;62.00;;;;;;5049758;28;1549;-71
2023/01/24 14:45:15;;;;;;;;;;;17.90;62.00;;;;;;5022991;28;809;-71
2023/01/24 14:47:41;;;;;;;;;;;17.90;62.10;;;;;;5035680;28;1243;-71
2023/01/24 14:50:25;;;;;;;;;;;17.90;62.10;;;;;;5033742;28;1342;-71
2023/01/24 14:52:50;;;;;;;;;;;17.90;62.10;;;;;;5032050;28;1418;-73
2023/01/24 14:55:28;;;;;;;;;;;17.90;62.10;;;;;;5026901;28;809;-70
2023/01/24 14:57:54;;;;;;;;;;;17.90;62.10;;;;;;5018428;28;1907;-71
2023/01/24 15:00:20;;;;;;;;;;;17.90;62.10;;;;;;5019120;28;858;-70
2023/01/24 15:02:52;;;;;;;;;;;17.90;62.10;;;;;;5049759;28;963;-70
2023/01/24 15:05:21;;;;;;;;;;;17.90;62.10;;;;;;5020979;28;957;-71
2023/01/24 15:07:46;;;;;;;;;;;17.90;62.10;;;;;;5032611;28;1550;-72
2023/01/24 15:10:13;;;;;;;;;;;17.90;62.20;;;;;;5019079;28;784;-70
2023/01/24 15:12:38;;;;;;;;;;;17.90;62.10;;;;;;5020797;28;843;-72
2023/01/24 15:15:04;;;;;;;;;;;17.90;62.20;;;;;;5018359;28;958;-71
2023/01/24 15:17:30;;;;;;;;;;;17.90;62.20;;;;;;5021307;28;1283;-71
2023/01/24 15:20:08;;;;;;;;;;;17.90;62.20;;;;;;5049567;28;1902;-71